Terminal Aerodrome Forecast
Issued by NWS Cleveland, OH

Home | Current Version | Previous Version | Graphics & Text | Print | Product List | Glossary On
Versions: 1 2 3 4 5 6 7 8 9 10 11 12 13 14 15 16 17 18 19 20 21 22 23 24
000
FTUS41 KCLE 190100 AAA
TAFYNG
TAF AMD
KYNG 190142Z 1902/1924 27006KT 6SM -SN BR OVC015
      TEMPO 1902/1904 -FZDZ OVC009
     FM190800 28005KT P6SM -SN OVC015
     FM191300 30005KT P6SM OVC012=

USA.gov is the U.S. government's official web portal to all federal, state and local government web resources and services.